sensor_id;sensor_type;location;lat;lon;timestamp;pressure;altitude;pressure_sealevel;temperature;humidity
64610;BME280;51019;46.090;6.350;2022-12-29T00:01:02;96737.91;;;2.04;100.00
64610;BME280;51019;46.090;6.350;2022-12-29T00:03:32;96778.94;;;1.95;100.00
64610;BME280;51019;46.090;6.350;2022-12-29T00:06:01;96806.16;;;2.02;100.00
64610;BME280;51019;46.090;6.350;2022-12-29T00:08:29;96805.38;;;2.15;100.00
64610;BME280;51019;46.090;6.350;2022-12-29T00:11:07;96787.94;;;2.19;100.00
64610;BME280;51019;46.090;6.350;2022-12-29T00:13:36;96800.88;;;2.35;100.00
64610;BME280;51019;46.090;6.350;2022-12-29T00:16:20;96795.00;;;2.47;100.00
64610;BME280;51019;46.090;6.350;2022-12-29T00:18:50;96796.09;;;2.27;100.00
64610;BME280;51019;46.090;6.350;2022-12-29T00:21:20;96737.34;;;1.83;100.00
64610;BME280;51019;46.090;6.350;2022-12-29T00:24:06;96779.78;;;1.95;100.00
64610;BME280;51019;46.090;6.350;2022-12-29T00:26:56;96792.22;;;1.89;100.00
64610;BME280;51019;46.090;6.350;2022-12-29T00:29:41;96797.66;;;2.00;100.00
64610;BME280;51019;46.090;6.350;2022-12-29T00:32:26;96811.47;;;2.14;100.00
64610;BME280;51019;46.090;6.350;2022-12-29T00:35:15;96808.31;;;1.94;100.00
64610;BME280;51019;46.090;6.350;2022-12-29T00:37:46;96808.16;;;1.97;100.00
64610;BME280;51019;46.090;6.350;2022-12-29T00:40:32;96794.19;;;2.15;100.00
64610;BME280;51019;46.090;6.350;2022-12-29T00:43:16;96794.63;;;2.07;100.00
64610;BME280;51019;46.090;6.350;2022-12-29T00:46:09;96809.91;;;1.96;100.00
64610;BME280;51019;46.090;6.350;2022-12-29T00:48:37;96807.25;;;2.13;100.00
64610;BME280;51019;46.090;6.350;2022-12-29T00:51:23;96808.78;;;2.32;100.00
64610;BME280;51019;46.090;6.350;2022-12-29T00:53:51;96796.16;;;2.57;100.00
64610;BME280;51019;46.090;6.350;2022-12-29T00:56:18;96744.91;;;2.18;100.00
64610;BME280;51019;46.090;6.350;2022-12-29T00:58:48;96810.69;;;2.74;100.00
64610;BME280;51019;46.090;6.350;2022-12-29T01:01:17;96787.75;;;2.98;100.00
64610;BME280;51019;46.090;6.350;2022-12-29T01:03:45;96782.16;;;2.75;100.00
64610;BME280;51019;46.090;6.350;2022-12-29T01:06:17;96682.00;;;2.17;100.00
64610;BME280;51019;46.090;6.350;2022-12-29T01:08:48;96781.47;;;2.72;100.00
64610;BME280;51019;46.090;6.350;2022-12-29T01:11:37;96715.50;;;2.35;100.00
64610;BME280;51019;46.090;6.350;2022-12-29T01:14:03;96703.53;;;2.18;100.00
64610;BME280;51019;46.090;6.350;2022-12-29T01:16:32;96797.84;;;2.72;100.00
64610;BME280;51019;46.090;6.350;2022-12-29T01:19:02;96790.44;;;2.66;100.00
64610;BME280;51019;46.090;6.350;2022-12-29T01:21:30;96789.00;;;2.76;100.00
64610;BME280;51019;46.090;6.350;2022-12-29T01:24:01;96729.22;;;2.51;100.00
64610;BME280;51019;46.090;6.350;2022-12-29T01:26:29;96765.53;;;2.79;100.00
64610;BME280;51019;46.090;6.350;2022-12-29T01:28:57;96810.28;;;2.96;100.00
64610;BME280;51019;46.090;6.350;2022-12-29T01:31:27;96793.25;;;2.77;100.00
64610;BME280;51019;46.090;6.350;2022-12-29T01:33:54;96723.19;;;2.36;100.00
64610;BME280;51019;46.090;6.350;2022-12-29T01:36:24;96732.63;;;2.51;100.00
64610;BME280;51019;46.090;6.350;2022-12-29T01:38:51;96738.81;;;2.49;100.00
64610;BME280;51019;46.090;6.350;2022-12-29T01:41:22;96742.16;;;2.51;100.00
64610;BME280;51019;46.090;6.350;2022-12-29T01:43:52;96702.63;;;2.19;100.00
64610;BME280;51019;46.090;6.350;2022-12-29T01:46:25;96705.13;;;2.05;100.00
64610;BME280;51019;46.090;6.350;2022-12-29T01:48:59;96688.53;;;2.09;100.00
64610;BME280;51019;46.090;6.350;2022-12-29T01:51:34;96795.66;;;2.50;100.00
64610;BME280;51019;46.090;6.350;2022-12-29T01:54:09;96754.00;;;2.25;100.00
64610;BME280;51019;46.090;6.350;2022-12-29T01:56:43;96811.25;;;2.49;100.00
64610;BME280;51019;46.090;6.350;2022-12-29T01:59:22;96821.34;;;2.83;100.00
64610;BME280;51019;46.090;6.350;2022-12-29T02:01:52;96803.84;;;3.03;100.00
64610;BME280;51019;46.090;6.350;2022-12-29T02:04:23;96826.63;;;3.12;100.00
64610;BME280;51019;46.090;6.350;2022-12-29T02:06:55;96817.25;;;3.09;100.00
64610;BME280;51019;46.090;6.350;2022-12-29T02:09:25;96804.59;;;3.19;100.00
64610;BME280;51019;46.090;6.350;2022-12-29T02:11:56;96819.16;;;3.36;100.00
64610;BME280;51019;46.090;6.350;2022-12-29T02:14:26;96805.44;;;3.34;100.00
64610;BME280;51019;46.090;6.350;2022-12-29T02:17:03;96730.88;;;2.82;100.00
64610;BME280;51019;46.090;6.350;2022-12-29T02:20:07;96835.63;;;3.35;100.00
64610;BME280;51019;46.090;6.350;2022-12-29T02:22:49;96821.59;;;3.09;100.00
64610;BME280;51019;46.090;6.350;2022-12-29T02:25:45;96785.66;;;2.74;100.00
64610;BME280;51019;46.090;6.350;2022-12-29T02:28:52;96816.38;;;2.95;100.00
64610;BME280;51019;46.090;6.350;2022-12-29T02:31:28;96845.13;;;3.20;100.00
64610;BME280;51019;46.090;6.350;2022-12-29T02:34:07;96835.25;;;3.26;100.00
64610;BME280;51019;46.090;6.350;2022-12-29T02:36:44;96831.63;;;3.29;100.00
64610;BME280;51019;46.090;6.350;2022-12-29T02:39:22;96807.84;;;3.22;100.00
64610;BME280;51019;46.090;6.350;2022-12-29T02:41:58;96750.94;;;2.92;100.00
64610;BME280;51019;46.090;6.350;2022-12-29T02:44:36;96781.94;;;3.08;100.00
64610;BME280;51019;46.090;6.350;2022-12-29T02:47:14;96722.25;;;2.96;100.00
64610;BME280;51019;46.090;6.350;2022-12-29T02:49:50;96741.63;;;3.04;100.00
64610;BME280;51019;46.090;6.350;2022-12-29T02:52:25;96737.91;;;3.08;100.00
64610;BME280;51019;46.090;6.350;2022-12-29T02:54:54;96728.22;;;3.26;100.00
64610;BME280;51019;46.090;6.350;2022-12-29T02:57:31;96821.00;;;3.90;100.00
64610;BME280;51019;46.090;6.350;2022-12-29T03:00:03;96740.78;;;3.32;100.00
64610;BME280;51019;46.090;6.350;2022-12-29T03:02:50;96770.38;;;3.56;100.00
64610;BME280;51019;46.090;6.350;2022-12-29T03:05:35;96704.91;;;3.26;100.00
64610;BME280;51019;46.090;6.350;2022-12-29T03:08:16;96718.84;;;3.23;100.00
64610;BME280;51019;46.090;6.350;2022-12-29T03:10:55;96793.66;;;3.85;100.00
64610;BME280;51019;46.090;6.350;2022-12-29T03:13:35;96696.56;;;2.92;100.00
64610;BME280;51019;46.090;6.350;2022-12-29T03:16:22;96774.38;;;3.48;100.00
64610;BME280;51019;46.090;6.350;2022-12-29T03:19:05;96764.84;;;3.48;100.00
64610;BME280;51019;46.090;6.350;2022-12-29T03:21:41;96771.56;;;3.79;100.00
64610;BME280;51019;46.090;6.350;2022-12-29T03:24:31;96773.44;;;4.04;100.00
64610;BME280;51019;46.090;6.350;2022-12-29T03:27:01;96743.00;;;3.93;100.00
64610;BME280;51019;46.090;6.350;2022-12-29T03:29:36;96759.94;;;3.99;100.00
64610;BME280;51019;46.090;6.350;2022-12-29T03:32:08;96704.78;;;3.83;100.00
64610;BME280;51019;46.090;6.350;2022-12-29T03:34:44;96726.13;;;4.00;100.00
64610;BME280;51019;46.090;6.350;2022-12-29T03:37:15;96750.78;;;4.20;100.00
64610;BME280;51019;46.090;6.350;2022-12-29T03:39:45;96755.28;;;4.04;100.00
64610;BME280;51019;46.090;6.350;2022-12-29T03:42:16;96691.16;;;3.52;100.00
64610;BME280;51019;46.090;6.350;2022-12-29T03:44:47;96666.81;;;3.55;100.00
64610;BME280;51019;46.090;6.350;2022-12-29T03:47:17;96733.34;;;4.22;100.00
64610;BME280;51019;46.090;6.350;2022-12-29T03:49:50;96718.66;;;4.09;100.00
64610;BME280;51019;46.090;6.350;2022-12-29T03:52:20;96643.47;;;3.55;100.00
64610;BME280;51019;46.090;6.350;2022-12-29T03:54:50;96700.59;;;3.94;100.00
64610;BME280;51019;46.090;6.350;2022-12-29T03:57:32;96704.78;;;3.83;100.00
64610;BME280;51019;46.090;6.350;2022-12-29T04:00:00;96680.47;;;3.98;100.00
64610;BME280;51019;46.090;6.350;2022-12-29T04:02:29;96725.09;;;4.03;100.00
64610;BME280;51019;46.090;6.350;2022-12-29T04:05:06;96710.84;;;3.96;100.00
64610;BME280;51019;46.090;6.350;2022-12-29T04:07:35;96709.91;;;4.24;100.00
64610;BME280;51019;46.090;6.350;2022-12-29T04:10:04;96629.34;;;3.46;100.00
64610;BME280;51019;46.090;6.350;2022-12-29T04:12:33;96707.47;;;3.81;100.00
64610;BME280;51019;46.090;6.350;2022-12-29T04:15:05;96631.22;;;3.30;100.00
64610;BME280;51019;46.090;6.350;2022-12-29T04:17:34;96723.94;;;4.07;100.00
64610;BME280;51019;46.090;6.350;2022-12-29T04:20:07;96652.66;;;3.60;100.00
64610;BME280;51019;46.090;6.350;2022-12-29T04:22:58;96724.09;;;4.06;100.00
64610;BME280;51019;46.090;6.350;2022-12-29T04:25:28;96734.41;;;3.93;100.00
64610;BME280;51019;46.090;6.350;2022-12-29T04:27:55;96716.44;;;3.90;100.00
64610;BME280;51019;46.090;6.350;2022-12-29T04:30:24;96722.09;;;4.09;100.00
64610;BME280;51019;46.090;6.350;2022-12-29T04:32:52;96721.91;;;4.12;100.00
64610;BME280;51019;46.090;6.350;2022-12-29T04:35:25;96711.06;;;3.93;100.00
64610;BME280;51019;46.090;6.350;2022-12-29T04:37:52;96690.19;;;3.68;100.00
64610;BME280;51019;46.090;6.350;2022-12-29T04:40:21;96722.88;;;3.97;100.00
64610;BME280;51019;46.090;6.350;2022-12-29T04:42:52;96704.25;;;4.05;100.00
64610;BME280;51019;46.090;6.350;2022-12-29T04:45:28;96727.00;;;3.87;100.00
64610;BME280;51019;46.090;6.350;2022-12-29T04:47:58;96646.59;;;3.33;100.00
64610;BME280;51019;46.090;6.350;2022-12-29T04:50:32;96708.25;;;3.69;100.00
64610;BME280;51019;46.090;6.350;2022-12-29T04:52:59;96735.75;;;3.98;100.00
64610;BME280;51019;46.090;6.350;2022-12-29T04:55:34;96638.41;;;3.53;100.00
64610;BME280;51019;46.090;6.350;2022-12-29T04:58:04;96646.91;;;3.55;100.00
64610;BME280;51019;46.090;6.350;2022-12-29T05:00:31;96716.03;;;3.96;100.00
64610;BME280;51019;46.090;6.350;2022-12-29T05:03:00;96628.56;;;3.17;100.00
64610;BME280;51019;46.090;6.350;2022-12-29T05:05:31;96649.00;;;3.36;100.00
64610;BME280;51019;46.090;6.350;2022-12-29T05:07:58;96732.63;;;3.93;100.00
64610;BME280;51019;46.090;6.350;2022-12-29T05:10:28;96738.00;;;3.90;100.00
64610;BME280;51019;46.090;6.350;2022-12-29T05:12:55;96742.47;;;3.74;100.00
64610;BME280;51019;46.090;6.350;2022-12-29T05:15:25;96714.53;;;3.79;100.00
64610;BME280;51019;46.090;6.350;2022-12-29T05:17:54;96720.75;;;3.62;100.00
64610;BME280;51019;46.090;6.350;2022-12-29T05:20:22;96703.31;;;3.79;100.00
64610;BME280;51019;46.090;6.350;2022-12-29T05:22:53;96649.31;;;3.58;100.00
64610;BME280;51019;46.090;6.350;2022-12-29T05:25:21;96719.97;;;3.75;100.00
64610;BME280;51019;46.090;6.350;2022-12-29T05:27:49;96727.09;;;3.85;100.00
64610;BME280;51019;46.090;6.350;2022-12-29T05:30:17;96690.50;;;3.90;100.00
64610;BME280;51019;46.090;6.350;2022-12-29T05:32:44;96718.44;;;3.99;100.00
64610;BME280;51019;46.090;6.350;2022-12-29T05:35:12;96714.63;;;4.05;100.00
64610;BME280;51019;46.090;6.350;2022-12-29T05:37:41;96721.91;;;4.12;100.00
64610;BME280;51019;46.090;6.350;2022-12-29T05:40:14;96740.91;;;4.13;100.00
64610;BME280;51019;46.090;6.350;2022-12-29T05:42:43;96664.34;;;3.80;100.00
64610;BME280;51019;46.090;6.350;2022-12-29T05:45:11;96660.44;;;3.73;100.00
64610;BME280;51019;46.090;6.350;2022-12-29T05:47:40;96710.09;;;4.21;100.00
64610;BME280;51019;46.090;6.350;2022-12-29T05:50:08;96716.22;;;4.20;100.00
64610;BME280;51019;46.090;6.350;2022-12-29T05:52:36;96710.06;;;4.08;100.00
64610;BME280;51019;46.090;6.350;2022-12-29T05:55:05;96699.91;;;4.05;100.00
64610;BME280;51019;46.090;6.350;2022-12-29T05:57:35;96690.56;;;4.03;100.00
64610;BME280;51019;46.090;6.350;2022-12-29T06:00:03;96695.50;;;3.93;100.00
64610;BME280;51019;46.090;6.350;2022-12-29T06:02:32;96666.91;;;3.53;100.00
64610;BME280;51019;46.090;6.350;2022-12-29T06:05:01;96645.06;;;3.57;100.00
64610;BME280;51019;46.090;6.350;2022-12-29T06:07:28;96655.94;;;3.62;100.00
64610;BME280;51019;46.090;6.350;2022-12-29T06:09:56;96714.03;;;3.87;100.00
64610;BME280;51019;46.090;6.350;2022-12-29T06:12:26;96736.78;;;4.23;100.00
64610;BME280;51019;46.090;6.350;2022-12-29T06:15:06;96748.25;;;4.06;100.00
64610;BME280;51019;46.090;6.350;2022-12-29T06:17:35;96748.56;;;3.87;100.00
64610;BME280;51019;46.090;6.350;2022-12-29T06:20:04;96718.97;;;4.04;100.00
64610;BME280;51019;46.090;6.350;2022-12-29T06:22:36;96730.50;;;3.86;100.00
64610;BME280;51019;46.090;6.350;2022-12-29T06:25:06;96753.19;;;4.23;100.00
64610;BME280;51019;46.090;6.350;2022-12-29T06:27:36;96762.81;;;4.21;100.00
64610;BME280;51019;46.090;6.350;2022-12-29T06:30:08;96775.59;;;4.24;100.00
64610;BME280;51019;46.090;6.350;2022-12-29T06:32:38;96762.09;;;4.19;100.00
64610;BME280;51019;46.090;6.350;2022-12-29T06:35:06;96745.00;;;4.03;100.00
64610;BME280;51019;46.090;6.350;2022-12-29T06:37:36;96780.94;;;4.09;100.00
64610;BME280;51019;46.090;6.350;2022-12-29T06:40:06;96747.66;;;4.15;100.00
64610;BME280;51019;46.090;6.350;2022-12-29T06:42:34;96734.84;;;4.26;100.00
64610;BME280;51019;46.090;6.350;2022-12-29T06:45:02;96751.97;;;4.68;100.00
64610;BME280;51019;46.090;6.350;2022-12-29T06:47:37;96628.22;;;4.04;100.00
64610;BME280;51019;46.090;6.350;2022-12-29T06:50:06;96701.78;;;4.55;100.00
64610;BME280;51019;46.090;6.350;2022-12-29T06:52:34;96748.66;;;4.79;100.00
64610;BME280;51019;46.090;6.350;2022-12-29T06:55:01;96728.97;;;4.50;100.00
64610;BME280;51019;46.090;6.350;2022-12-29T06:57:29;96715.47;;;4.45;100.00
64610;BME280;51019;46.090;6.350;2022-12-29T06:59:56;96629.44;;;3.98;100.00
64610;BME280;51019;46.090;6.350;2022-12-29T07:02:25;96736.06;;;4.60;100.00
64610;BME280;51019;46.090;6.350;2022-12-29T07:04:55;96736.06;;;4.60;100.00
64610;BME280;51019;46.090;6.350;2022-12-29T07:07:23;96719.75;;;4.58;100.00
64610;BME280;51019;46.090;6.350;2022-12-29T07:09:52;96732.66;;;4.72;100.00
64610;BME280;51019;46.090;6.350;2022-12-29T07:12:20;96714.59;;;4.84;100.00
64610;BME280;51019;46.090;6.350;2022-12-29T07:14:48;96707.41;;;4.87;100.00
64610;BME280;51019;46.090;6.350;2022-12-29T07:17:24;96691.00;;;4.99;100.00
64610;BME280;51019;46.090;6.350;2022-12-29T07:19:54;96723.09;;;5.49;100.00
64610;BME280;51019;46.090;6.350;2022-12-29T07:22:22;96691.75;;;6.00;100.00
64610;BME280;51019;46.090;6.350;2022-12-29T07:24:50;96686.53;;;6.00;100.00
64610;BME280;51019;46.090;6.350;2022-12-29T07:27:18;96690.31;;;6.19;100.00
64610;BME280;51019;46.090;6.350;2022-12-29T07:29:46;96692.72;;;6.69;100.00
64610;BME280;51019;46.090;6.350;2022-12-29T07:32:16;96690.28;;;7.12;100.00
64610;BME280;51019;46.090;6.350;2022-12-29T07:34:44;96700.19;;;6.73;100.00
64610;BME280;51019;46.090;6.350;2022-12-29T07:37:15;96711.69;;;6.82;100.00
64610;BME280;51019;46.090;6.350;2022-12-29T07:39:44;96700.25;;;6.49;100.00
64610;BME280;51019;46.090;6.350;2022-12-29T07:42:11;96704.00;;;6.80;100.00
64610;BME280;51019;46.090;6.350;2022-12-29T07:44:43;96703.69;;;8.17;98.17
64610;BME280;51019;46.090;6.350;2022-12-29T07:47:15;96713.34;;;8.49;94.72
64610;BME280;51019;46.090;6.350;2022-12-29T07:49:43;96685.13;;;8.43;96.45
64610;BME280;51019;46.090;6.350;2022-12-29T07:52:14;96715.88;;;8.39;97.19
64610;BME280;51019;46.090;6.350;2022-12-29T07:54:42;96723.13;;;8.24;97.69
64610;BME280;51019;46.090;6.350;2022-12-29T07:57:11;96656.38;;;8.11;95.11
64610;BME280;51019;46.090;6.350;2022-12-29T07:59:38;96697.59;;;8.39;88.93
64610;BME280;51019;46.090;6.350;2022-12-29T08:02:10;96713.41;;;8.58;87.77
64610;BME280;51019;46.090;6.350;2022-12-29T08:04:41;96710.63;;;8.71;89.33
64610;BME280;51019;46.090;6.350;2022-12-29T08:07:08;96699.91;;;8.53;85.27
64610;BME280;51019;46.090;6.350;2022-12-29T08:09:37;96719.16;;;8.52;86.73
64610;BME280;51019;46.090;6.350;2022-12-29T08:12:06;96682.00;;;8.49;85.03
64610;BME280;51019;46.090;6.350;2022-12-29T08:14:34;96709.94;;;8.69;84.66
64610;BME280;51019;46.090;6.350;2022-12-29T08:17:02;96712.41;;;8.70;83.51
64610;BME280;51019;46.090;6.350;2022-12-29T08:19:30;96719.16;;;8.52;83.46
64610;BME280;51019;46.090;6.350;2022-12-29T08:21:58;96699.88;;;8.32;84.00
64610;BME280;51019;46.090;6.350;2022-12-29T08:24:27;96713.56;;;8.78;84.53
64610;BME280;51019;46.090;6.350;2022-12-29T08:26:56;96625.94;;;8.73;81.88
64610;BME280;51019;46.090;6.350;2022-12-29T08:29:24;96707.06;;;9.44;82.23
64610;BME280;51019;46.090;6.350;2022-12-29T08:31:52;96688.50;;;9.47;81.28
64610;BME280;51019;46.090;6.350;2022-12-29T08:34:21;96686.94;;;9.35;82.20
64610;BME280;51019;46.090;6.350;2022-12-29T08:36:49;96656.56;;;9.13;80.39
64610;BME280;51019;46.090;6.350;2022-12-29T08:39:17;96716.06;;;9.91;81.66
64610;BME280;51019;46.090;6.350;2022-12-29T08:41:46;96725.84;;;9.89;78.48
64610;BME280;51019;46.090;6.350;2022-12-29T08:44:15;96656.97;;;9.18;77.51
64610;BME280;51019;46.090;6.350;2022-12-29T08:46:44;96729.00;;;9.53;76.30
64610;BME280;51019;46.090;6.350;2022-12-29T08:49:16;96706.06;;;9.35;75.76
64610;BME280;51019;46.090;6.350;2022-12-29T08:51:45;96717.31;;;9.57;75.21
64610;BME280;51019;46.090;6.350;2022-12-29T08:54:14;96660.56;;;9.17;77.96
64610;BME280;51019;46.090;6.350;2022-12-29T08:56:46;96728.88;;;9.54;76.21
64610;BME280;51019;46.090;6.350;2022-12-29T08:59:26;96615.34;;;8.75;76.72
64610;BME280;51019;46.090;6.350;2022-12-29T09:02:10;96624.72;;;8.36;79.33
64610;BME280;51019;46.090;6.350;2022-12-29T09:04:38;96677.50;;;8.71;79.01
64610;BME280;51019;46.090;6.350;2022-12-29T09:07:06;96734.41;;;9.09;81.82
64610;BME280;51019;46.090;6.350;2022-12-29T09:09:33;96740.22;;;9.34;77.85
64610;BME280;51019;46.090;6.350;2022-12-29T09:12:06;96677.09;;;8.97;77.70
64610;BME280;51019;46.090;6.350;2022-12-29T09:14:36;96729.25;;;9.50;77.81
64610;BME280;51019;46.090;6.350;2022-12-29T09:17:04;96732.72;;;9.60;78.82
64610;BME280;51019;46.090;6.350;2022-12-29T09:19:48;96732.22;;;9.66;81.06
64610;BME280;51019;46.090;6.350;2022-12-29T09:22:16;96673.41;;;9.30;81.76
64610;BME280;51019;46.090;6.350;2022-12-29T09:24:43;96724.56;;;10.43;79.46
64610;BME280;51019;46.090;6.350;2022-12-29T09:27:11;96727.34;;;10.89;73.84
64610;BME280;51019;46.090;6.350;2022-12-29T09:29:51;96645.19;;;9.73;72.14
64610;BME280;51019;46.090;6.350;2022-12-29T09:32:38;96708.84;;;9.83;76.67
64610;BME280;51019;46.090;6.350;2022-12-29T09:35:07;96657.59;;;9.31;76.35
64610;BME280;51019;46.090;6.350;2022-12-29T09:37:36;96721.78;;;9.75;75.15
64610;BME280;51019;46.090;6.350;2022-12-29T09:40:05;96680.22;;;9.42;78.68
64610;BME280;51019;46.090;6.350;2022-12-29T09:42:38;96723.06;;;9.51;82.11
64610;BME280;51019;46.090;6.350;2022-12-29T09:45:15;96758.78;;;9.61;80.40
64610;BME280;51019;46.090;6.350;2022-12-29T09:47:46;96761.34;;;9.52;82.46
64610;BME280;51019;46.090;6.350;2022-12-29T09:50:20;96749.50;;;9.27;82.18
64610;BME280;51019;46.090;6.350;2022-12-29T09:53:09;96744.88;;;9.30;83.70
64610;BME280;51019;46.090;6.350;2022-12-29T09:55:54;96688.69;;;9.04;85.75
64610;BME280;51019;46.090;6.350;2022-12-29T09:58:36;96645.47;;;9.00;94.44
64610;BME280;51019;46.090;6.350;2022-12-29T10:01:18;96663.69;;;9.11;99.02
64610;BME280;51019;46.090;6.350;2022-12-29T10:03:51;96708.41;;;9.69;97.55
64610;BME280;51019;46.090;6.350;2022-12-29T10:06:22;96740.13;;;11.12;92.09
64610;BME280;51019;46.090;6.350;2022-12-29T10:08:57;96671.34;;;10.52;87.75
64610;BME280;51019;46.090;6.350;2022-12-29T10:11:54;96685.97;;;11.30;84.24
64610;BME280;51019;46.090;6.350;2022-12-29T10:14:37;96636.00;;;11.22;79.63
64610;BME280;51019;46.090;6.350;2022-12-29T10:17:22;96703.00;;;12.35;69.75
64610;BME280;51019;46.090;6.350;2022-12-29T10:20:06;96693.66;;;13.72;65.12
64610;BME280;51019;46.090;6.350;2022-12-29T10:22:54;96691.97;;;14.55;59.63
64610;BME280;51019;46.090;6.350;2022-12-29T10:28:56;96600.28;;;13.66;57.75
64610;BME280;51019;46.090;6.350;2022-12-29T10:31:46;96689.81;;;14.59;57.07
64610;BME280;51019;46.090;6.350;2022-12-29T10:52:54;96600.78;;;14.69;52.59
64610;BME280;51019;46.090;6.350;2022-12-29T10:55:47;96532.06;;;14.46;52.43
64610;BME280;51019;46.090;6.350;2022-12-29T10:58:59;96545.13;;;15.50;49.66
64610;BME280;51019;46.090;6.350;2022-12-29T11:08:50;96493.84;;;15.05;50.78
64610;BME280;51019;46.090;6.350;2022-12-29T11:14:46;96599.50;;;14.65;53.47
64610;BME280;51019;46.090;6.350;2022-12-29T11:17:44;96501.28;;;13.23;56.04
64610;BME280;51019;46.090;6.350;2022-12-29T11:20:59;96595.75;;;13.93;55.05
64610;BME280;51019;46.090;6.350;2022-12-29T11:23:39;96554.22;;;13.62;55.35
64610;BME280;51019;46.090;6.350;2022-12-29T11:26:24;96545.88;;;13.91;56.05
64610;BME280;51019;46.090;6.350;2022-12-29T11:29:28;96580.91;;;15.21;53.34
64610;BME280;51019;46.090;6.350;2022-12-29T11:32:16;96469.59;;;14.46;51.47
64610;BME280;51019;46.090;6.350;2022-12-29T11:35:03;96461.72;;;13.90;53.41
64610;BME280;51019;46.090;6.350;2022-12-29T11:37:45;96438.25;;;13.22;55.95
64610;BME280;51019;46.090;6.350;2022-12-29T11:40:19;96499.28;;;13.17;57.19
64610;BME280;51019;46.090;6.350;2022-12-29T11:42:57;96481.00;;;13.98;54.97
64610;BME280;51019;46.090;6.350;2022-12-29T11:45:30;96489.88;;;14.13;54.39
64610;BME280;51019;46.090;6.350;2022-12-29T11:48:08;96419.88;;;14.11;54.25
64610;BME280;51019;46.090;6.350;2022-12-29T11:50:40;96490.78;;;15.64;51.49
64610;BME280;51019;46.090;6.350;2022-12-29T11:53:20;96436.28;;;14.62;52.88
64610;BME280;51019;46.090;6.350;2022-12-29T11:56:13;96493.34;;;15.41;49.61
64610;BME280;51019;46.090;6.350;2022-12-29T11:58:51;96452.28;;;14.36;51.57
64610;BME280;51019;46.090;6.350;2022-12-29T12:01:35;96484.25;;;14.57;52.92
64610;BME280;51019;46.090;6.350;2022-12-29T12:04:15;96522.66;;;14.27;54.72
64610;BME280;51019;46.090;6.350;2022-12-29T12:07:00;96510.16;;;13.97;54.17
64610;BME280;51019;46.090;6.350;2022-12-29T12:09:38;96450.22;;;13.82;57.59
64610;BME280;51019;46.090;6.350;2022-12-29T12:12:22;96442.13;;;14.00;54.02
64610;BME280;51019;46.090;6.350;2022-12-29T12:15:03;96448.06;;;14.10;54.44
64610;BME280;51019;46.090;6.350;2022-12-29T12:17:43;96406.88;;;13.36;55.06
64610;BME280;51019;46.090;6.350;2022-12-29T12:20:24;96398.97;;;13.28;54.98
64610;BME280;51019;46.090;6.350;2022-12-29T12:23:06;96480.97;;;13.66;57.19
64610;BME280;51019;46.090;6.350;2022-12-29T12:25:38;96473.38;;;13.55;58.00
64610;BME280;51019;46.090;6.350;2022-12-29T12:28:11;96445.69;;;13.34;58.16
64610;BME280;51019;46.090;6.350;2022-12-29T12:30:55;96452.81;;;13.58;60.40
64610;BME280;51019;46.090;6.350;2022-12-29T12:33:37;96488.53;;;13.61;62.24
64610;BME280;51019;46.090;6.350;2022-12-29T12:36:30;96425.06;;;13.05;63.59
64610;BME280;51019;46.090;6.350;2022-12-29T12:39:05;96400.66;;;12.45;61.12
64610;BME280;51019;46.090;6.350;2022-12-29T12:41:43;96508.13;;;12.74;62.39
64610;BME280;51019;46.090;6.350;2022-12-29T12:44:19;96451.91;;;12.15;62.72
64610;BME280;51019;46.090;6.350;2022-12-29T12:47:12;96505.19;;;12.51;64.58
64610;BME280;51019;46.090;6.350;2022-12-29T12:50:19;96501.88;;;12.23;64.77
64610;BME280;51019;46.090;6.350;2022-12-29T12:53:06;96499.19;;;11.97;65.06
64610;BME280;51019;46.090;6.350;2022-12-29T12:55:51;96481.94;;;11.59;65.41
64610;BME280;51019;46.090;6.350;2022-12-29T12:58:42;96491.34;;;11.62;66.95
64610;BME280;51019;46.090;6.350;2022-12-29T13:01:28;96489.72;;;11.51;68.58
64610;BME280;51019;46.090;6.350;2022-12-29T13:06:51;96483.03;;;11.21;69.51
64610;BME280;51019;46.090;6.350;2022-12-29T13:09:31;96496.00;;;11.23;70.50
64610;BME280;51019;46.090;6.350;2022-12-29T13:12:09;96488.56;;;11.18;68.60
64610;BME280;51019;46.090;6.350;2022-12-29T13:14:52;96490.47;;;11.26;68.63
64610;BME280;51019;46.090;6.350;2022-12-29T13:17:30;96428.03;;;10.84;68.12
64610;BME280;51019;46.090;6.350;2022-12-29T13:20:18;96498.97;;;11.10;68.52
64610;BME280;51019;46.090;6.350;2022-12-29T13:22:55;96465.03;;;10.81;68.84
64610;BME280;51019;46.090;6.350;2022-12-29T13:25:34;96493.88;;;11.09;68.78
64610;BME280;51019;46.090;6.350;2022-12-29T13:28:10;96498.25;;;10.90;69.62
64610;BME280;51019;46.090;6.350;2022-12-29T13:30:49;96481.78;;;10.98;67.92
64610;BME280;51019;46.090;6.350;2022-12-29T13:33:27;96474.56;;;10.82;67.42
64610;BME280;51019;46.090;6.350;2022-12-29T13:36:03;96475.22;;;10.84;67.72
64610;BME280;51019;46.090;6.350;2022-12-29T13:38:40;96480.66;;;11.01;68.59
64610;BME280;51019;46.090;6.350;2022-12-29T13:41:14;96420.88;;;10.59;67.03
64610;BME280;51019;46.090;6.350;2022-12-29T13:43:45;96473.41;;;10.85;67.55
64610;BME280;51019;46.090;6.350;2022-12-29T13:46:21;96407.75;;;10.59;66.62
64610;BME280;51019;46.090;6.350;2022-12-29T13:48:53;96471.97;;;11.00;66.92
64610;BME280;51019;46.090;6.350;2022-12-29T13:51:23;96433.38;;;10.65;66.51
64610;BME280;51019;46.090;6.350;2022-12-29T13:54:09;96452.78;;;10.72;65.98
64610;BME280;51019;46.090;6.350;2022-12-29T13:56:42;96434.59;;;10.71;66.68
64610;BME280;51019;46.090;6.350;2022-12-29T13:59:19;96467.47;;;10.93;66.40
64610;BME280;51019;46.090;6.350;2022-12-29T14:01:53;96476.81;;;10.95;66.54
64610;BME280;51019;46.090;6.350;2022-12-29T14:04:24;96467.97;;;10.96;65.57
64610;BME280;51019;46.090;6.350;2022-12-29T14:07:02;96460.13;;;10.96;66.26
64610;BME280;51019;46.090;6.350;2022-12-29T14:12:36;96477.22;;;11.00;67.01
64610;BME280;51019;46.090;6.350;2022-12-29T14:15:05;96479.06;;;10.90;65.99
64610;BME280;51019;46.090;6.350;2022-12-29T14:17:34;96479.59;;;10.94;67.29
64610;BME280;51019;46.090;6.350;2022-12-29T14:20:03;96478.97;;;10.82;67.26